Time;durP1;ratioP1;P1;durP2;ratioP2;P2;SDS_P1;SDS_P2;PMS_P1;PMS_P2;Temp;Humidity;BMP_temperature;BMP_pressure;BME280_temperature;BME280_humidity;BME280_pressure;Samples;Min_cycle;Max_cycle;Signal;HPM_P1;HPM_P2
2021/09/13 00:02:04;;;;;;;17.30;13.18;;;15.40;74.80;;;;;;5012165;28;20042;-83
2021/09/13 00:04:31;;;;;;;16.42;10.70;;;15.40;74.80;;;;;;5012469;28;20169;-83
2021/09/13 00:06:58;;;;;;;19.73;14.75;;;15.40;74.80;;;;;;5012296;28;20458;-83
2021/09/13 00:09:26;;;;;;;17.92;12.27;;;15.30;74.90;;;;;;5012109;28;20099;-84
2021/09/13 00:11:53;;;;;;;25.67;15.40;;;15.30;74.90;;;;;;5012112;28;20573;-84
2021/09/13 00:14:21;;;;;;;16.90;13.13;;;15.30;75.00;;;;;;5012157;28;20057;-83
2021/09/13 00:16:48;;;;;;;19.13;15.43;;;15.30;75.00;;;;;;5012284;28;20077;-83
2021/09/13 00:19:15;;;;;;;21.75;16.60;;;15.20;75.00;;;;;;5011706;28;20149;-83
2021/09/13 00:21:41;;;;;;;19.80;15.57;;;15.30;75.00;;;;;;5012564;28;20112;-83
2021/09/13 00:24:09;;;;;;;21.55;17.40;;;15.20;75.00;;;;;;5011470;28;20054;-83
2021/09/13 00:26:36;;;;;;;19.90;15.07;;;15.20;75.00;;;;;;5011897;28;20046;-84
2021/09/13 00:29:03;;;;;;;20.23;14.90;;;15.20;75.10;;;;;;5011916;28;20104;-83
2021/09/13 00:31:30;;;;;;;17.00;14.05;;;15.20;75.10;;;;;;5012130;28;20096;-84
2021/09/13 00:33:57;;;;;;;26.67;17.00;;;15.10;75.00;;;;;;5012216;28;20054;-84
2021/09/13 00:36:24;;;;;;;17.10;14.75;;;15.10;75.00;;;;;;5011862;28;20054;-84
2021/09/13 00:38:53;;;;;;;21.30;17.80;;;15.10;75.00;;;;;;5011724;28;20139;-83
2021/09/13 00:41:21;;;;;;;21.23;15.90;;;15.10;75.00;;;;;;5011634;28;20085;-84
2021/09/13 00:43:49;;;;;;;18.67;16.42;;;15.00;74.90;;;;;;5011701;28;20506;-83
2021/09/13 00:46:16;;;;;;;17.83;14.30;;;15.00;74.90;;;;;;5011724;28;20050;-84
2021/09/13 00:48:43;;;;;;;19.23;15.60;;;14.90;74.90;;;;;;5011938;28;20057;-84
2021/09/13 00:51:11;;;;;;;20.20;15.90;;;15.00;74.90;;;;;;5011588;28;20049;-84
2021/09/13 00:53:38;;;;;;;23.20;16.52;;;14.90;74.90;;;;;;5011330;28;20465;-83
2021/09/13 00:56:06;;;;;;;20.60;15.93;;;14.90;74.90;;;;;;5011460;28;20058;-84
2021/09/13 00:58:35;;;;;;;22.35;16.73;;;14.90;74.90;;;;;;5011513;28;20046;-84
2021/09/13 01:01:03;;;;;;;20.95;16.23;;;14.90;75.00;;;;;;5011389;28;20084;-84
2021/09/13 01:03:34;;;;;;;21.80;16.52;;;14.90;75.20;;;;;;5011321;28;20141;-84
2021/09/13 01:06:02;;;;;;;16.90;14.90;;;14.90;75.30;;;;;;5011193;28;20231;-83
2021/09/13 01:08:29;;;;;;;21.25;15.63;;;14.80;75.40;;;;;;5011086;28;20502;-84
2021/09/13 01:10:56;;;;;;;20.17;15.07;;;14.80;75.40;;;;;;5011247;28;20042;-84
2021/09/13 01:13:23;;;;;;;18.50;16.00;;;14.70;75.50;;;;;;5011208;28;20038;-83
2021/09/13 01:15:51;;;;;;;18.98;15.85;;;14.70;75.50;;;;;;5011731;28;20054;-84
2021/09/13 01:18:17;;;;;;;20.88;16.85;;;14.70;75.50;;;;;;5010720;28;20042;-84
2021/09/13 01:20:44;;;;;;;20.20;16.10;;;14.70;75.40;;;;;;5010939;28;20100;-84
2021/09/13 01:23:26;;;;;;;19.02;15.55;;;14.70;75.40;;;;;;5010847;28;20108;-84
2021/09/13 01:25:53;;;;;;;20.88;17.10;;;14.70;75.30;;;;;;5010936;28;20065;-84
2021/09/13 01:28:20;;;;;;;21.58;16.00;;;14.60;75.30;;;;;;5010912;28;20057;-84
2021/09/13 01:30:47;;;;;;;26.63;19.10;;;14.60;75.30;;;;;;5011402;28;20100;-83
2021/09/13 01:33:14;;;;;;;25.30;19.25;;;14.60;75.30;;;;;;5010463;28;20092;-84
2021/09/13 01:35:42;;;;;;;22.52;17.15;;;14.60;75.50;;;;;;5010336;28;20050;-84
2021/09/13 01:38:09;;;;;;;20.42;17.38;;;14.50;75.70;;;;;;5010445;28;20042;-84
2021/09/13 01:40:36;;;;;;;22.77;17.50;;;14.50;75.70;;;;;;5010861;28;20458;-84
2021/09/13 01:43:03;;;;;;;20.60;16.88;;;14.50;75.70;;;;;;4993398;28;20545;-84
2021/09/13 01:45:30;;;;;;;19.23;16.25;;;14.50;75.80;;;;;;5010279;28;20445;-84
2021/09/13 01:47:57;;;;;;;22.42;17.75;;;14.50;75.80;;;;;;5010390;28;20049;-84
2021/09/13 01:50:24;;;;;;;19.48;16.70;;;14.50;75.80;;;;;;5010528;28;20096;-84
2021/09/13 01:52:51;;;;;;;22.17;16.60;;;14.40;75.90;;;;;;5010699;28;20107;-84
2021/09/13 01:55:18;;;;;;;23.08;18.20;;;14.40;75.90;;;;;;5010917;28;20556;-84
2021/09/13 01:57:45;;;;;;;20.77;18.23;;;14.40;75.90;;;;;;5011227;28;20054;-84
2021/09/13 02:00:13;;;;;;;21.48;17.92;;;14.40;75.90;;;;;;5010432;28;20046;-84
2021/09/13 02:02:40;;;;;;;24.80;18.17;;;14.40;76.00;;;;;;5003513;28;20104;-84
2021/09/13 02:05:08;;;;;;;26.33;20.00;;;14.40;76.10;;;;;;5000318;28;20168;-84
2021/09/13 02:07:35;;;;;;;21.35;17.75;;;14.40;76.20;;;;;;5010527;28;20514;-84
2021/09/13 02:10:05;;;;;;;22.90;17.88;;;14.40;76.30;;;;;;5010690;28;20062;-84
2021/09/13 02:12:32;;;;;;;21.65;17.40;;;14.40;76.40;;;;;;5010186;28;20058;-84
2021/09/13 02:14:59;;;;;;;24.02;19.20;;;14.30;76.40;;;;;;5010366;28;20105;-84
2021/09/13 02:17:26;;;;;;;22.98;19.13;;;14.30;76.50;;;;;;5010128;28;20053;-84
2021/09/13 02:19:53;;;;;;;26.63;20.98;;;14.20;76.60;;;;;;5010471;28;20100;-84
2021/09/13 02:22:20;;;;;;;28.58;19.52;;;14.20;76.70;;;;;;5010322;28;20600;-84
2021/09/13 02:24:47;;;;;;;27.95;19.58;;;14.20;76.80;;;;;;5010854;28;20476;-84
2021/09/13 02:27:14;;;;;;;25.08;19.98;;;14.20;76.80;;;;;;5010032;28;20547;-84
2021/09/13 02:29:40;;;;;;;19.17;16.40;;;14.20;76.80;;;;;;5009755;28;20050;-84
2021/09/13 02:32:07;;;;;;;30.50;17.98;;;14.10;76.90;;;;;;5010196;28;20449;-84
2021/09/13 02:34:34;;;;;;;26.80;18.55;;;14.20;76.80;;;;;;5010341;28;20088;-84
2021/09/13 02:37:01;;;;;;;23.67;18.30;;;14.10;76.80;;;;;;5010298;28;20546;-84
2021/09/13 02:39:28;;;;;;;19.73;16.48;;;14.10;76.70;;;;;;5010584;28;20049;-84
2021/09/13 02:41:56;;;;;;;24.75;18.35;;;14.10;76.70;;;;;;5010043;28;20122;-84
2021/09/13 02:44:25;;;;;;;23.77;16.20;;;14.10;76.70;;;;;;5009724;28;20462;-84
2021/09/13 02:46:52;;;;;;;24.20;18.30;;;14.10;76.70;;;;;;5010301;28;20501;-84
2021/09/13 02:49:18;;;;;;;20.30;16.23;;;14.10;76.60;;;;;;5013809;28;20058;-84
2021/09/13 02:51:45;;;;;;;21.00;17.40;;;14.10;76.60;;;;;;5014348;28;20042;-84
2021/09/13 02:54:12;;;;;;;19.40;16.55;;;14.00;76.60;;;;;;5013683;28;20104;-84
2021/09/13 02:56:39;;;;;;;17.15;15.20;;;14.10;76.50;;;;;;4996302;28;20108;-84
2021/09/13 02:59:06;;;;;;;23.20;18.33;;;14.10;76.40;;;;;;5013286;28;20041;-84
2021/09/13 03:01:33;;;;;;;22.05;17.48;;;14.00;76.40;;;;;;5013569;28;20113;-84
2021/09/13 03:04:00;;;;;;;18.75;15.85;;;14.00;76.50;;;;;;5014070;28;20049;-84
2021/09/13 03:06:27;;;;;;;20.85;16.58;;;14.00;76.60;;;;;;5013557;28;20056;-84
2021/09/13 03:08:54;;;;;;;19.83;15.80;;;14.00;76.60;;;;;;5013400;28;20049;-84
2021/09/13 03:11:22;;;;;;;19.73;16.33;;;14.00;76.50;;;;;;5013279;28;20058;-84
2021/09/13 03:13:49;;;;;;;21.08;16.52;;;13.90;76.50;;;;;;5013054;28;20066;-84
2021/09/13 03:16:16;;;;;;;23.80;15.30;;;14.00;76.40;;;;;;5013417;28;20112;-84
2021/09/13 03:18:43;;;;;;;17.98;14.82;;;14.00;76.50;;;;;;5013849;28;20509;-84
2021/09/13 03:21:10;;;;;;;25.42;19.20;;;13.90;76.50;;;;;;5013075;28;20049;-83
2021/09/13 03:23:37;;;;;;;22.60;18.27;;;13.90;76.60;;;;;;5012959;28;20046;-84
2021/09/13 03:26:04;;;;;;;25.15;19.60;;;13.90;76.70;;;;;;5013121;28;20094;-84
2021/09/13 03:28:32;;;;;;;23.00;18.75;;;13.90;76.80;;;;;;5012780;28;20120;-84
2021/09/13 03:30:59;;;;;;;20.00;16.42;;;13.80;77.00;;;;;;5013377;28;20608;-84
2021/09/13 03:33:26;;;;;;;27.38;19.98;;;13.90;77.10;;;;;;5013334;28;20096;-84
2021/09/13 03:35:53;;;;;;;21.63;17.60;;;13.80;77.10;;;;;;5012787;28;20058;-84
2021/09/13 03:38:20;;;;;;;24.15;17.67;;;13.80;77.20;;;;;;5012778;28;20050;-84
2021/09/13 03:40:47;;;;;;;24.45;18.08;;;13.70;77.30;;;;;;5012789;28;20046;-84
2021/09/13 03:43:14;;;;;;;24.15;17.75;;;13.70;77.30;;;;;;5012373;28;20104;-84
2021/09/13 03:45:41;;;;;;;18.65;16.40;;;13.70;77.30;;;;;;5013406;28;20045;-84
2021/09/13 03:48:08;;;;;;;23.77;16.83;;;13.70;77.30;;;;;;4991145;28;20111;-84
2021/09/13 03:50:35;;;;;;;22.10;17.30;;;13.70;77.30;;;;;;4990883;28;20046;-84
2021/09/13 03:53:03;;;;;;;21.35;15.82;;;13.70;77.30;;;;;;5012501;28;20593;-84
2021/09/13 03:55:32;;;;;;;23.15;18.08;;;13.70;77.30;;;;;;5012697;28;20541;-84
2021/09/13 03:57:59;;;;;;;23.60;18.65;;;13.60;77.30;;;;;;5012601;28;20061;-84
2021/09/13 04:00:25;;;;;;;20.33;15.70;;;13.70;77.30;;;;;;5011454;28;20089;-84
2021/09/13 04:02:53;;;;;;;21.20;16.13;;;13.70;77.20;;;;;;5012415;28;20045;-84
2021/09/13 04:05:22;;;;;;;22.58;18.30;;;13.70;77.20;;;;;;5012324;28;20437;-84
2021/09/13 04:08:06;;;;;;;20.65;16.38;;;13.60;77.10;;;;;;5012473;28;20150;-84
2021/09/13 04:13:18;;;;;;;23.70;18.63;;;13.60;77.20;;;;;;5012018;28;20100;-84
2021/09/13 04:15:45;;;;;;;21.65;17.30;;;13.60;77.20;;;;;;5012755;28;20088;-84
2021/09/13 04:18:12;;;;;;;21.92;17.23;;;13.60;77.10;;;;;;5012277;28;20054;-84
2021/09/13 04:20:38;;;;;;;24.35;18.92;;;13.60;77.20;;;;;;5012032;28;20115;-84
2021/09/13 04:23:05;;;;;;;21.63;17.75;;;13.60;77.20;;;;;;5011924;28;20096;-84
2021/09/13 04:25:32;;;;;;;23.67;16.63;;;13.50;77.30;;;;;;5012075;28;20112;-84
2021/09/13 04:27:59;;;;;;;26.60;19.10;;;13.50;77.30;;;;;;5011806;28;20053;-84
2021/09/13 04:30:26;;;;;;;21.17;17.38;;;13.50;77.40;;;;;;5011920;28;20056;-84
2021/09/13 04:32:53;;;;;;;29.10;19.42;;;13.50;77.40;;;;;;5011742;28;20449;-83
2021/09/13 04:35:20;;;;;;;24.05;18.67;;;13.50;77.50;;;;;;5011779;28;20146;-83
2021/09/13 04:37:47;;;;;;;21.45;16.83;;;13.50;77.50;;;;;;5011784;28;20521;-85
2021/09/13 04:40:15;;;;;;;25.02;16.70;;;13.40;77.60;;;;;;5011326;28;20056;-84
2021/09/13 04:42:42;;;;;;;21.27;17.05;;;13.40;77.60;;;;;;5012092;28;20057;-84
2021/09/13 04:45:09;;;;;;;26.63;19.75;;;13.40;77.50;;;;;;5011682;28;20538;-84
2021/09/13 04:47:36;;;;;;;22.55;16.85;;;13.50;77.50;;;;;;5011471;28;20042;-84
2021/09/13 04:50:03;;;;;;;21.45;16.73;;;13.40;77.50;;;;;;5011502;28;20050;-84
2021/09/13 04:52:30;;;;;;;25.67;19.85;;;13.40;77.50;;;;;;5011568;28;20101;-84
2021/09/13 04:54:57;;;;;;;21.58;17.30;;;13.40;77.50;;;;;;5011649;28;20053;-84
2021/09/13 04:57:24;;;;;;;29.48;17.40;;;13.40;77.60;;;;;;5011591;28;20050;-84
2021/09/13 04:59:50;;;;;;;20.77;15.88;;;13.40;77.50;;;;;;5011326;28;20108;-84
2021/09/13 05:02:17;;;;;;;23.38;18.08;;;13.40;77.50;;;;;;5011293;28;20080;-84
2021/09/13 05:04:44;;;;;;;23.92;18.80;;;13.40;77.60;;;;;;5011387;28;20054;-84
2021/09/13 05:07:11;;;;;;;19.38;16.10;;;13.40;77.70;;;;;;5011345;28;20503;-84
2021/09/13 05:09:38;;;;;;;24.17;16.58;;;13.40;77.60;;;;;;5005416;28;20088;-85
2021/09/13 05:12:05;;;;;;;22.30;17.42;;;13.40;77.60;;;;;;4993623;28;20108;-84
2021/09/13 05:14:32;;;;;;;21.63;17.38;;;13.40;77.60;;;;;;5011007;28;20065;-84
2021/09/13 05:16:59;;;;;;;21.67;16.48;;;13.40;77.60;;;;;;5011106;28;20576;-84
2021/09/13 05:19:27;;;;;;;25.50;18.63;;;13.40;77.50;;;;;;4995467;28;20049;-85
2021/09/13 05:21:53;;;;;;;19.73;15.65;;;13.40;77.50;;;;;;5007505;28;20057;-84
2021/09/13 05:24:20;;;;;;;25.45;17.00;;;13.40;77.50;;;;;;5010497;28;20126;-84
2021/09/13 05:26:47;;;;;;;24.85;18.63;;;13.40;77.50;;;;;;5011063;28;20050;-84
2021/09/13 05:29:14;;;;;;;23.80;18.23;;;13.40;77.50;;;;;;5010579;28;20053;-85
2021/09/13 05:31:41;;;;;;;24.58;17.48;;;13.40;77.50;;;;;;5010945;28;20572;-84
2021/09/13 05:34:08;;;;;;;22.15;17.90;;;13.40;77.60;;;;;;5011196;28;20514;-84
2021/09/13 05:36:35;;;;;;;25.67;19.45;;;13.30;77.70;;;;;;5011266;28;20092;-84
2021/09/13 05:39:02;;;;;;;27.88;20.73;;;13.30;77.80;;;;;;5008229;28;20050;-84
2021/09/13 05:41:28;;;;;;;24.80;18.70;;;13.30;77.90;;;;;;5008304;28;20041;-84
2021/09/13 05:43:56;;;;;;;25.92;19.10;;;13.20;77.90;;;;;;5006852;28;20881;-84
2021/09/13 05:46:23;;;;;;;24.83;18.48;;;13.20;78.00;;;;;;5007702;28;20046;-84
2021/09/13 05:48:49;;;;;;;30.63;17.90;;;13.30;78.10;;;;;;5010569;28;20466;-84
2021/09/13 05:51:17;;;;;;;22.65;17.08;;;13.20;78.10;;;;;;5006642;28;20112;-84
2021/09/13 05:53:44;;;;;;;27.02;18.48;;;13.20;78.10;;;;;;5006341;28;20469;-85
2021/09/13 05:56:10;;;;;;;27.02;20.63;;;13.20;78.10;;;;;;5006319;28;20053;-84
2021/09/13 05:58:37;;;;;;;23.60;17.33;;;13.20;78.10;;;;;;5003158;28;20050;-84
2021/09/13 06:01:04;;;;;;;21.92;15.82;;;13.20;78.20;;;;;;5010058;28;20057;-84
2021/09/13 06:03:32;;;;;;;21.52;16.60;;;13.20;78.20;;;;;;5009841;28;20425;-85
2021/09/13 06:05:59;;;;;;;22.90;16.90;;;13.20;78.20;;;;;;5007783;28;20089;-84
2021/09/13 06:08:25;;;;;;;21.67;17.52;;;13.30;78.30;;;;;;5006687;28;20521;-84
2021/09/13 06:10:52;;;;;;;20.88;17.00;;;13.30;78.40;;;;;;5007890;28;20046;-84
2021/09/13 06:13:19;;;;;;;20.58;16.50;;;13.30;78.60;;;;;;5008847;28;20093;-84
2021/09/13 06:15:46;;;;;;;22.38;16.33;;;13.30;78.70;;;;;;5010775;28;20054;-84
2021/09/13 06:18:33;;;;;;;28.90;19.75;;;13.20;78.80;;;;;;5011406;28;20089;-84
2021/09/13 06:21:00;;;;;;;24.90;17.75;;;13.30;78.90;;;;;;5009347;28;20050;-84
2021/09/13 06:23:26;;;;;;;33.42;23.95;;;13.30;79.00;;;;;;5009255;28;20042;-84
2021/09/13 06:25:53;;;;;;;36.05;24.70;;;13.30;79.20;;;;;;5011795;28;20049;-84
2021/09/13 06:28:21;;;;;;;44.20;26.70;;;13.30;79.60;;;;;;5012371;28;20105;-86
2021/09/13 06:30:48;;;;;;;35.20;23.92;;;13.40;79.90;;;;;;5014721;28;20053;-87
2021/09/13 06:33:15;;;;;;;42.40;28.90;;;13.40;80.30;;;;;;5011438;28;20050;-88
2021/09/13 06:35:42;;;;;;;44.72;28.58;;;13.40;80.70;;;;;;5011453;28;20103;-87
2021/09/13 06:38:09;;;;;;;49.35;27.95;;;13.50;81.10;;;;;;5010647;28;20108;-85
2021/09/13 06:40:36;;;;;;;41.05;28.63;;;13.50;81.40;;;;;;5011509;28;20065;-85
2021/09/13 06:43:03;;;;;;;44.72;29.80;;;13.60;81.60;;;;;;5014327;28;20057;-85
2021/09/13 06:45:39;;;;;;;48.95;28.70;;;13.70;81.90;;;;;;5011867;28;20054;-85
2021/09/13 06:48:07;;;;;;;30.67;22.75;;;13.70;82.10;;;;;;5012866;28;20092;-84
2021/09/13 06:50:34;;;;;;;44.22;28.45;;;13.80;82.20;;;;;;5011076;28;20053;-84
2021/09/13 06:53:01;;;;;;;42.08;26.75;;;13.90;82.30;;;;;;5010790;28;20125;-85
2021/09/13 06:55:28;;;;;;;38.42;27.70;;;13.90;82.40;;;;;;5011228;28;20080;-83
2021/09/13 06:57:55;;;;;;;46.80;26.83;;;14.00;82.50;;;;;;5015452;28;20509;-84
2021/09/13 07:00:22;;;;;;;41.25;27.40;;;14.10;82.50;;;;;;5009715;28;20057;-84
2021/09/13 07:02:50;;;;;;;33.92;24.20;;;14.20;82.60;;;;;;5010998;28;20046;-84
2021/09/13 07:05:17;;;;;;;40.97;25.85;;;14.20;82.60;;;;;;5006234;28;20050;-85
2021/09/13 07:07:44;;;;;;;41.65;26.05;;;14.30;82.60;;;;;;5010794;28;20042;-84
2021/09/13 07:10:16;;;;;;;36.30;23.08;;;14.30;82.60;;;;;;5012822;28;20073;-83
2021/09/13 07:12:45;;;;;;;35.30;24.90;;;14.40;82.60;;;;;;5013681;28;20130;-84
2021/09/13 07:15:13;;;;;;;36.67;26.52;;;14.40;82.60;;;;;;5010207;28;20568;-85
2021/09/13 07:17:40;;;;;;;37.88;24.23;;;14.40;82.50;;;;;;5010716;28;20149;-85
2021/09/13 07:20:07;;;;;;;34.47;24.55;;;14.50;82.50;;;;;;5010605;28;20046;-84
2021/09/13 07:22:34;;;;;;;34.95;22.75;;;14.50;82.50;;;;;;5010703;28;20047;-84
2021/09/13 07:25:02;;;;;;;34.90;24.27;;;14.60;82.50;;;;;;5013908;28;20053;-84
2021/09/13 07:27:29;;;;;;;30.05;21.15;;;14.70;82.50;;;;;;5013277;28;20502;-84
2021/09/13 07:29:59;;;;;;;41.35;25.08;;;14.70;82.50;;;;;;5010091;28;20469;-85
2021/09/13 07:32:26;;;;;;;33.22;21.83;;;14.70;82.50;;;;;;5010346;28;20046;-86
2021/09/13 07:34:53;;;;;;;38.95;24.55;;;14.80;82.50;;;;;;5008970;28;20053;-83
2021/09/13 07:37:20;;;;;;;43.53;24.48;;;14.90;82.50;;;;;;5011536;28;20050;-85
2021/09/13 07:39:47;;;;;;;30.08;21.30;;;14.90;82.60;;;;;;5013754;28;20058;-85
2021/09/13 07:42:14;;;;;;;33.40;22.60;;;15.00;82.60;;;;;;5010121;28;20050;-84
2021/09/13 07:44:41;;;;;;;40.17;24.70;;;15.10;82.60;;;;;;5009587;28;20576;-85
2021/09/13 07:47:09;;;;;;;34.72;23.45;;;15.10;82.60;;;;;;5010080;28;20046;-83
2021/09/13 07:49:36;;;;;;;32.78;23.40;;;15.20;82.50;;;;;;5009864;28;20109;-84
2021/09/13 07:52:03;;;;;;;37.38;24.10;;;15.20;82.40;;;;;;5012393;28;20050;-85
2021/09/13 07:54:30;;;;;;;32.33;22.63;;;15.30;82.20;;;;;;5010890;28;20057;-84
2021/09/13 07:56:57;;;;;;;33.10;23.40;;;15.30;82.10;;;;;;5009940;28;20049;-85
2021/09/13 07:59:24;;;;;;;41.15;25.15;;;15.40;82.00;;;;;;5009537;28;20571;-83
2021/09/13 08:01:50;;;;;;;32.67;24.13;;;15.40;82.00;;;;;;5010154;28;20502;-83
2021/09/13 08:04:18;;;;;;;29.38;22.65;;;15.50;81.90;;;;;;5011194;28;20533;-84
2021/09/13 08:06:44;;;;;;;31.30;23.88;;;15.60;81.80;;;;;;5012484;28;20568;-85
2021/09/13 08:09:11;;;;;;;37.42;24.40;;;15.70;81.70;;;;;;5009693;28;20458;-84
2021/09/13 08:11:38;;;;;;;31.73;22.80;;;15.70;81.60;;;;;;5009752;28;20096;-86
2021/09/13 08:14:05;;;;;;;31.83;24.35;;;15.80;81.60;;;;;;5009144;28;20498;-85
2021/09/13 08:16:33;;;;;;;30.35;23.60;;;15.90;81.50;;;;;;5010028;28;20055;-87
2021/09/13 08:19:00;;;;;;;31.90;23.15;;;15.90;81.40;;;;;;5012594;28;20046;-86
2021/09/13 08:21:28;;;;;;;32.42;23.35;;;16.00;81.30;;;;;;5010875;28;20050;-83
2021/09/13 08:23:56;;;;;;;34.08;23.33;;;16.00;81.20;;;;;;5009451;28;20045;-87
2021/09/13 08:26:23;;;;;;;35.95;25.45;;;16.10;81.10;;;;;;5009357;28;20050;-85
2021/09/13 08:28:50;;;;;;;32.10;23.33;;;16.20;81.00;;;;;;5009136;28;20058;-83
2021/09/13 08:31:17;;;;;;;30.70;24.15;;;16.30;80.90;;;;;;5010985;28;20058;-85
2021/09/13 08:33:44;;;;;;;34.28;25.42;;;16.30;80.80;;;;;;5011233;28;20045;-83
2021/09/13 08:36:11;;;;;;;33.58;24.42;;;16.40;80.70;;;;;;5007893;28;20112;-83
2021/09/13 08:38:38;;;;;;;33.63;22.42;;;16.40;80.60;;;;;;5007802;28;20454;-82
2021/09/13 08:41:06;;;;;;;31.17;23.65;;;16.50;80.60;;;;;;5008153;28;20049;-84
2021/09/13 08:43:33;;;;;;;39.30;24.15;;;16.60;80.50;;;;;;5008162;28;20058;-84
2021/09/13 08:46:08;;;;;;;32.42;22.35;;;16.70;80.30;;;;;;5011006;28;20053;-84
2021/09/13 08:53:42;;;;;;;30.38;22.52;;;16.90;79.70;;;;;;5007619;28;20049;-84
2021/09/13 08:56:14;;;;;;;27.77;22.00;;;16.90;79.50;;;;;;5007938;28;20092;-83
2021/09/13 08:58:42;;;;;;;33.15;23.20;;;17.00;79.40;;;;;;5007610;28;20046;-84
2021/09/13 09:01:11;;;;;;;27.17;19.70;;;17.10;79.20;;;;;;5009524;28;20054;-83
2021/09/13 09:03:45;;;;;;;30.40;21.15;;;17.20;79.00;;;;;;5009604;28;20085;-86
2021/09/13 09:06:36;;;;;;;30.35;21.23;;;17.30;78.90;;;;;;5007386;28;20092;-82
2021/09/13 09:09:10;;;;;;;29.33;22.05;;;17.40;78.80;;;;;;5007212;28;20126;-84
2021/09/13 09:12:01;;;;;;;31.27;20.05;;;17.40;78.80;;;;;;5007437;28;20097;-83
2021/09/13 09:14:34;;;;;;;27.58;20.90;;;17.50;78.70;;;;;;5008883;28;20050;-83
2021/09/13 09:17:05;;;;;;;28.02;20.00;;;17.60;78.60;;;;;;5007055;28;20046;-84
2021/09/13 09:19:32;;;;;;;26.80;19.23;;;17.70;78.40;;;;;;5007684;28;20053;-83
2021/09/13 09:22:26;;;;;;;27.55;17.67;;;17.80;78.40;;;;;;5010640;28;20111;-83
2021/09/13 09:24:55;;;;;;;27.83;19.17;;;17.90;78.00;;;;;;5007283;28;20058;-83
2021/09/13 09:27:24;;;;;;;28.65;20.20;;;17.90;77.80;;;;;;5007045;28;20108;-83
2021/09/13 09:29:52;;;;;;;32.70;20.50;;;18.00;77.60;;;;;;5006904;28;20591;-83
2021/09/13 09:32:25;;;;;;;32.55;20.88;;;18.10;77.30;;;;;;5006660;28;20045;-84
2021/09/13 09:34:53;;;;;;;28.48;21.27;;;18.20;77.10;;;;;;5008810;28;20048;-83
2021/09/13 09:37:25;;;;;;;28.65;21.73;;;18.30;76.90;;;;;;5008079;28;20109;-83
2021/09/13 09:39:59;;;;;;;31.30;22.20;;;18.30;76.80;;;;;;5010913;28;20072;-83
2021/09/13 09:42:31;;;;;;;30.80;21.80;;;18.40;76.60;;;;;;5006917;28;20045;-84
2021/09/13 09:44:59;;;;;;;29.20;20.70;;;18.40;76.20;;;;;;5006494;28;20057;-82
2021/09/13 09:47:26;;;;;;;37.28;22.17;;;18.50;76.00;;;;;;5006843;28;20568;-83
2021/09/13 09:49:55;;;;;;;31.08;21.45;;;18.60;75.80;;;;;;5007220;28;20092;-83
2021/09/13 09:52:33;;;;;;;36.90;22.15;;;18.60;75.60;;;;;;5008122;28;20042;-83
2021/09/13 09:55:17;;;;;;;30.20;21.80;;;18.60;75.40;;;;;;5006796;28;20510;-83
2021/09/13 09:58:05;;;;;;;27.88;21.33;;;18.70;75.50;;;;;;5008939;28;20108;-83
2021/09/13 10:00:34;;;;;;;28.25;20.38;;;18.80;75.40;;;;;;5009612;28;20592;-83
2021/09/13 10:03:01;;;;;;;27.85;18.52;;;18.90;75.50;;;;;;5006709;28;20050;-83
2021/09/13 10:05:30;;;;;;;27.48;17.92;;;19.00;75.20;;;;;;5006541;28;20053;-83
2021/09/13 10:07:57;;;;;;;26.58;17.60;;;19.10;74.80;;;;;;5006793;28;20060;-83
2021/09/13 10:10:30;;;;;;;29.67;17.85;;;19.30;74.70;;;;;;5007387;28;20050;-83
2021/09/13 10:12:59;;;;;;;30.27;17.98;;;19.40;74.20;;;;;;5006978;28;20100;-83
2021/09/13 10:15:27;;;;;;;29.20;20.20;;;19.40;73.90;;;;;;5006482;28;20691;-83
2021/09/13 10:17:59;;;;;;;26.15;18.15;;;19.40;73.70;;;;;;5006473;28;20161;-84
2021/09/13 10:20:26;;;;;;;26.23;18.85;;;19.50;73.40;;;;;;5006320;28;20529;-84
2021/09/13 10:22:55;;;;;;;28.10;19.75;;;19.60;73.30;;;;;;5006621;28;20046;-83
2021/09/13 10:25:27;;;;;;;22.77;16.95;;;19.60;73.00;;;;;;5007414;28;20053;-83
2021/09/13 10:28:05;;;;;;;26.90;18.80;;;19.70;72.90;;;;;;5006654;28;20057;-83
2021/09/13 10:30:47;;;;;;;30.13;20.15;;;19.80;73.00;;;;;;5009643;28;20054;-83
2021/09/13 10:33:21;;;;;;;31.27;19.05;;;19.80;72.90;;;;;;5007283;28;20052;-83
2021/09/13 10:35:54;;;;;;;26.42;17.10;;;19.90;72.70;;;;;;5006179;28;20488;-83
2021/09/13 10:38:43;;;;;;;28.42;20.17;;;19.90;72.60;;;;;;5006661;28;20050;-83
2021/09/13 10:41:11;;;;;;;23.67;17.90;;;20.10;72.40;;;;;;5006531;28;20038;-84
2021/09/13 10:44:05;;;;;;;29.40;18.30;;;20.20;72.10;;;;;;5006048;28;20046;-83
2021/09/13 10:47:00;;;;;;;28.15;18.73;;;20.30;71.60;;;;;;4992530;28;20050;-85
2021/09/13 10:49:27;;;;;;;25.23;17.17;;;20.40;71.00;;;;;;4991133;28;20049;-84
2021/09/13 10:52:33;;;;;;;23.38;16.77;;;20.40;70.90;;;;;;5006335;28;20128;-83
2021/09/13 10:55:09;;;;;;;28.20;17.45;;;20.50;70.70;;;;;;5006130;28;20046;-83
2021/09/13 10:57:54;;;;;;;27.17;18.92;;;20.60;70.50;;;;;;5007487;28;20707;-84
2021/09/13 11:00:50;;;;;;;22.70;17.20;;;20.60;70.20;;;;;;5006259;28;20054;-84
2021/09/13 11:03:24;;;;;;;27.33;18.58;;;20.70;69.70;;;;;;5007532;28;20050;-83
2021/09/13 11:08:50;;;;;;;21.92;16.17;;;20.80;69.90;;;;;;5007083;28;20112;-84
2021/09/13 11:11:27;;;;;;;24.00;16.27;;;20.80;69.60;;;;;;5009489;28;20049;-85
2021/09/13 11:14:01;;;;;;;24.05;14.43;;;20.80;69.30;;;;;;5009342;28;20057;-84
2021/09/13 11:16:30;;;;;;;23.50;15.15;;;20.90;68.90;;;;;;4994445;28;20053;-84
2021/09/13 11:18:58;;;;;;;21.63;14.18;;;20.90;68.00;;;;;;5009958;28;20132;-84
2021/09/13 11:21:28;;;;;;;17.42;13.27;;;21.00;67.40;;;;;;5011911;28;20054;-84
2021/09/13 11:24:17;;;;;;;18.90;12.70;;;21.10;66.80;;;;;;5009316;28;20089;-85
2021/09/13 11:26:49;;;;;;;23.38;13.98;;;21.20;66.90;;;;;;5008940;28;20057;-84
2021/09/13 11:29:18;;;;;;;16.42;13.30;;;21.30;66.60;;;;;;5009007;28;20403;-85
2021/09/13 11:31:59;;;;;;;19.52;12.48;;;21.40;66.10;;;;;;5011018;28;20049;-85
2021/09/13 11:34:36;;;;;;;17.38;11.52;;;21.40;66.20;;;;;;5009732;28;20046;-86
2021/09/13 11:37:23;;;;;;;17.88;11.45;;;21.50;65.80;;;;;;5009138;28;20540;-85
2021/09/13 11:40:10;;;;;;;16.02;11.93;;;21.60;65.40;;;;;;5009571;28;20542;-84
2021/09/13 11:42:37;;;;;;;17.75;11.18;;;21.60;64.60;;;;;;5010542;28;20049;-85
2021/09/13 11:45:13;;;;;;;16.42;10.93;;;21.70;64.60;;;;;;5008886;28;20050;-85
2021/09/13 11:47:55;;;;;;;16.77;10.75;;;21.70;64.90;;;;;;5009067;28;20053;-85
2021/09/13 11:50:22;;;;;;;17.00;11.57;;;21.90;65.20;;;;;;5008853;28;20133;-84
2021/09/13 11:52:49;;;;;;;15.82;11.25;;;21.90;64.80;;;;;;5009021;28;20058;-84
2021/09/13 11:55:19;;;;;;;18.15;12.45;;;22.00;64.30;;;;;;5010334;28;20593;-85
2021/09/13 11:57:48;;;;;;;18.08;12.68;;;22.10;64.20;;;;;;5012035;28;20049;-85
2021/09/13 12:00:20;;;;;;;16.35;11.13;;;22.10;64.30;;;;;;5008625;28;20058;-84
2021/09/13 12:02:48;;;;;;;17.67;11.50;;;22.10;64.20;;;;;;5008809;28;20057;-85
2021/09/13 12:05:21;;;;;;;15.27;10.68;;;22.10;63.50;;;;;;5008511;28;20483;-85
2021/09/13 12:07:52;;;;;;;17.88;11.07;;;22.10;63.80;;;;;;5008664;28;20050;-85
2021/09/13 12:10:25;;;;;;;16.65;11.35;;;22.10;63.20;;;;;;5009935;28;20050;-84
2021/09/13 12:12:59;;;;;;;18.45;11.80;;;22.10;63.00;;;;;;5012785;28;20107;-85
2021/09/13 12:15:30;;;;;;;15.82;10.35;;;22.10;63.30;;;;;;5010920;28;20052;-85
2021/09/13 12:17:57;;;;;;;19.35;10.45;;;22.10;63.20;;;;;;5008697;28;20104;-84
2021/09/13 12:20:34;;;;;;;15.13;9.60;;;22.10;63.10;;;;;;5007784;28;20100;-86
2021/09/13 12:23:09;;;;;;;17.10;10.90;;;22.10;63.30;;;;;;5008238;28;20049;-85
2021/09/13 12:25:51;;;;;;;15.18;9.20;;;22.30;63.20;;;;;;4993799;28;20096;-84
2021/09/13 12:28:21;;;;;;;14.13;9.32;;;22.40;62.90;;;;;;5009633;28;20765;-84
2021/09/13 12:30:58;;;;;;;23.33;15.90;;;22.40;62.30;;;;;;5011568;28;20112;-84
2021/09/13 12:33:45;;;;;;;19.00;11.85;;;22.40;62.10;;;;;;5009331;28;20057;-85
2021/09/13 12:36:23;;;;;;;12.70;9.07;;;22.50;61.90;;;;;;5007971;28;20079;-84
2021/09/13 12:38:57;;;;;;;15.57;9.45;;;22.60;61.90;;;;;;5007652;28;20112;-84
2021/09/13 12:41:38;;;;;;;14.13;10.38;;;22.60;61.90;;;;;;5008024;28;20560;-85
2021/09/13 12:44:22;;;;;;;16.33;10.65;;;22.70;61.60;;;;;;5007968;28;20099;-87
2021/09/13 12:46:54;;;;;;;19.30;10.27;;;22.80;61.80;;;;;;5007961;28;20054;-84
2021/09/13 12:49:24;;;;;;;13.47;9.47;;;22.80;61.60;;;;;;5008777;28;20046;-85
2021/09/13 12:51:55;;;;;;;14.05;9.60;;;22.80;61.40;;;;;;5011496;28;20528;-85